Time;durP1;ratioP1;P1;durP2;ratioP2;P2;SDS_P1;SDS_P2;PMS_P1;PMS_P2;Temp;Humidity;BMP_temperature;BMP_pressure;BME280_temperature;BME280_humidity;BME280_pressure;Samples;Min_cycle;Max_cycle;Signal;HPM_P1;HPM_P2
2024/04/25 00:01:52;;;;;;;;;;;;;;;;;;;;;
2024/04/25 00:04:18;;;;;;;0.10;0.10;;;10.60;67.70;;;;;;5384684;26;20457;-84
2024/04/25 00:06:49;;;;;;;0.10;0.10;;;10.50;67.80;;;;;;5376900;26;20023;-84
2024/04/25 00:09:17;;;;;;;0.10;0.10;;;10.40;68.00;;;;;;5330239;26;19997;-84
2024/04/25 00:14:34;;;;;;;0.10;0.10;;;10.30;68.60;;;;;;5348437;26;20001;-83
2024/04/25 00:17:07;;;;;;;0.10;0.10;;;10.20;68.50;;;;;;5325367;26;20009;-84
2024/04/25 00:19:36;;;;;;;0.10;0.10;;;10.20;68.50;;;;;;5311969;27;20020;-84
2024/04/25 00:22:05;;;;;;;0.10;0.10;;;10.10;68.60;;;;;;5317045;26;19997;-84
2024/04/25 00:24:38;;;;;;;0.10;0.10;;;10.00;68.80;;;;;;5318746;26;20005;-84
2024/04/25 00:27:10;;;;;;;0.10;0.10;;;10.00;69.00;;;;;;5348511;26;20025;-84
2024/04/25 00:29:38;;;;;;;0.10;0.10;;;9.90;69.10;;;;;;5318408;26;20005;-85
2024/04/25 00:32:04;;;;;;;0.10;0.10;;;10.00;69.30;;;;;;5318636;26;20048;-84
2024/04/25 00:34:33;;;;;;;0.10;0.10;;;9.90;69.30;;;;;;5314701;27;20026;-84
2024/04/25 00:36:59;;;;;;;0.10;0.10;;;9.90;69.40;;;;;;5337730;26;20016;-84
2024/04/25 00:39:28;;;;;;;0.10;0.10;;;10.00;69.30;;;;;;5315930;26;20009;-84
2024/04/25 00:41:53;;;;;;;0.10;0.10;;;10.00;69.90;;;;;;5314452;27;20020;-84
2024/04/25 00:44:22;;;;;;;0.10;0.10;;;10.00;70.10;;;;;;5300763;26;20001;-84
2024/04/25 00:46:51;;;;;;;0.10;0.10;;;10.10;69.10;;;;;;5312861;26;20012;-84
2024/04/25 00:49:19;;;;;;;0.10;0.10;;;10.20;68.30;;;;;;5314786;27;20068;-83
2024/04/25 00:51:45;;;;;;;0.10;0.10;;;10.20;68.00;;;;;;5311362;27;20005;-84
2024/04/25 00:54:13;;;;;;;0.10;0.10;;;10.20;68.00;;;;;;5313983;27;20016;-83
2024/04/25 00:56:41;;;;;;;0.10;0.10;;;10.20;67.90;;;;;;5312117;26;20002;-84
2024/04/25 00:59:17;;;;;;;0.10;0.10;;;10.10;68.00;;;;;;5283674;27;20461;-84
2024/04/25 01:01:49;;;;;;;0.10;0.10;;;10.20;68.00;;;;;;5313863;27;20375;-84
2024/04/25 01:04:25;;;;;;;0.10;0.10;;;10.20;67.80;;;;;;5283747;27;20005;-84
2024/04/25 01:10:22;;;;;;;0.10;0.10;;;10.10;67.50;;;;;;5340994;26;20419;-83
2024/04/25 01:13:08;;;;;;;0.10;0.10;;;10.10;67.50;;;;;;5376029;26;20435;-84
2024/04/25 01:15:39;;;;;;;0.10;0.10;;;10.00;67.50;;;;;;5324164;26;20055;-84
2024/04/25 01:18:05;;;;;;;0.10;0.10;;;10.00;67.50;;;;;;5346435;26;20398;-84
2024/04/25 01:20:45;;;;;;;0.10;0.10;;;9.90;67.70;;;;;;5317763;26;20005;-84
2024/04/25 01:23:14;;;;;;;0.10;0.10;;;9.90;67.70;;;;;;5321044;26;20029;-84
2024/04/25 01:25:44;;;;;;;0.10;0.10;;;9.90;67.60;;;;;;5331352;26;20081;-84
2024/04/25 01:28:15;;;;;;;0.10;0.10;;;9.90;67.40;;;;;;5352306;26;20000;-84
2024/04/25 01:30:45;;;;;;;0.10;0.10;;;9.80;67.40;;;;;;5333327;26;19997;-84
2024/04/25 01:33:15;;;;;;;0.10;0.10;;;9.80;67.40;;;;;;5344758;26;20459;-84
2024/04/25 01:35:45;;;;;;;0.10;0.10;;;9.80;67.60;;;;;;5316164;26;20081;-84
2024/04/25 01:38:16;;;;;;;0.10;0.10;;;9.80;67.60;;;;;;5375216;26;20455;-84
2024/04/25 01:40:44;;;;;;;0.10;0.10;;;9.70;67.40;;;;;;5316346;26;20013;-84
2024/04/25 01:43:46;;;;;;;0.10;0.10;;;9.70;67.40;;;;;;5313141;26;20041;-83
2024/04/25 01:46:09;;;;;;;0.10;0.10;;;9.70;67.40;;;;;;5309557;27;19998;-84
2024/04/25 01:48:55;;;;;;;0.10;0.10;;;9.70;67.20;;;;;;5311409;27;20005;-84
2024/04/25 01:51:23;;;;;;;0.10;0.10;;;9.70;67.10;;;;;;5316820;26;20040;-84
2024/04/25 01:54:01;;;;;;;0.10;0.10;;;9.60;67.20;;;;;;5309909;27;20005;-84
2024/04/25 01:56:56;;;;;;;0.10;0.10;;;9.60;67.70;;;;;;5311981;27;20005;-84
2024/04/25 01:59:24;;;;;;;0.10;0.10;;;9.50;67.60;;;;;;5312465;26;20064;-84
2024/04/25 02:01:52;;;;;;;0.10;0.10;;;9.50;67.40;;;;;;5311055;26;20006;-84
2024/04/25 02:04:35;;;;;;;0.10;0.10;;;9.50;67.60;;;;;;5312013;27;20076;-85
2024/04/25 02:07:10;;;;;;;0.10;0.10;;;9.50;67.60;;;;;;5356822;26;20005;-84
2024/04/25 02:09:45;;;;;;;0.10;0.10;;;9.60;67.30;;;;;;5334967;26;20011;-85
2024/04/25 02:15:04;;;;;;;0.10;0.10;;;9.60;67.60;;;;;;5326215;26;20001;-84
2024/04/25 02:17:32;;;;;;;0.10;0.10;;;9.50;67.70;;;;;;5314613;27;20001;-84
2024/04/25 02:20:00;;;;;;;0.10;0.10;;;9.60;67.80;;;;;;5309883;27;19993;-84
2024/04/25 02:25:43;;;;;;;0.10;0.10;;;9.50;67.90;;;;;;5316374;26;20080;-84
2024/04/25 02:28:11;;;;;;;0.10;0.10;;;9.50;67.60;;;;;;5313924;27;20006;-84
2024/04/25 02:30:36;;;;;;;0.10;0.10;;;9.40;67.80;;;;;;5313244;27;20064;-86
2024/04/25 02:33:05;;;;;;;0.10;0.10;;;9.50;67.90;;;;;;5313443;27;20017;-85
2024/04/25 02:35:31;;;;;;;0.10;0.10;;;9.40;67.80;;;;;;5288231;26;20006;-86
2024/04/25 02:37:59;;;;;;;0.10;0.10;;;9.40;67.70;;;;;;5348975;26;20008;-87
2024/04/25 02:40:37;;;;;;;;;;;;;;;;;;;;;
2024/04/25 02:43:04;;;;;;;0.10;0.10;;;9.40;67.80;;;;;;5310687;27;20001;-86
2024/04/25 02:45:37;;;;;;;0.10;0.10;;;9.40;67.90;;;;;;5298667;27;20006;-84
2024/04/25 02:48:13;;;;;;;0.10;0.10;;;9.30;68.30;;;;;;5313513;27;20328;-85
2024/04/25 02:50:42;;;;;;;0.10;0.10;;;9.30;68.90;;;;;;5313246;27;20017;-84
2024/04/25 02:53:10;;;;;;;0.10;0.10;;;9.30;69.10;;;;;;5315964;26;20002;-84
2024/04/25 02:55:38;;;;;;;0.10;0.10;;;9.20;69.20;;;;;;5373563;26;20015;-86
2024/04/25 02:58:48;;;;;;;0.10;0.10;;;9.20;69.70;;;;;;5350522;26;20462;-86
2024/04/25 03:01:18;;;;;;;0.10;0.10;;;9.20;69.60;;;;;;5314374;27;20016;-86
2024/04/25 03:03:48;;;;;;;0.10;0.10;;;9.20;69.50;;;;;;5314212;27;20070;-84
2024/04/25 03:06:14;;;;;;;0.10;0.10;;;9.20;69.40;;;;;;5326208;26;20005;-86
2024/04/25 03:08:42;;;;;;;0.10;0.10;;;9.20;69.50;;;;;;5332168;26;20008;-86
2024/04/25 03:11:11;;;;;;;0.10;0.10;;;9.20;69.20;;;;;;5319836;26;20480;-86
2024/04/25 03:13:42;;;;;;;0.10;0.10;;;9.20;69.70;;;;;;5342991;26;20915;-84
2024/04/25 03:16:08;;;;;;;0.10;0.10;;;9.10;69.70;;;;;;5314854;27;20402;-85
2024/04/25 03:18:34;;;;;;;0.10;0.10;;;9.10;69.50;;;;;;5312503;26;20411;-84
2024/04/25 03:21:17;;;;;;;;;;;;;;;;;;;;;
2024/04/25 03:23:48;;;;;;;;;;;9.10;70.00;;;;;;5316025;27;20002;-84
2024/04/25 03:26:17;;;;;;;0.10;0.10;;;9.10;69.80;;;;;;5331401;26;19926;-86
2024/04/25 03:28:43;;;;;;;0.10;0.10;;;9.00;69.90;;;;;;5349645;26;20441;-87
2024/04/25 03:31:11;;;;;;;0.10;0.10;;;9.00;69.90;;;;;;5307726;26;20012;-86
2024/04/25 03:33:39;;;;;;;0.10;0.10;;;9.00;70.00;;;;;;5304255;26;20436;-87
2024/04/25 03:36:05;;;;;;;0.10;0.10;;;9.00;70.00;;;;;;5349318;26;20015;-86
2024/04/25 03:38:33;;;;;;;0.10;0.10;;;9.00;69.70;;;;;;5316291;26;20001;-86
2024/04/25 03:41:05;;;;;;;0.10;0.10;;;9.10;70.00;;;;;;5313852;27;19998;-85
2024/04/25 03:43:36;;;;;;;0.10;0.10;;;9.10;69.90;;;;;;5312514;27;20020;-86
2024/04/25 03:46:02;;;;;;;0.10;0.10;;;9.10;69.90;;;;;;5313373;27;20019;-85
2024/04/25 03:48:33;;;;;;;0.10;0.10;;;9.00;69.90;;;;;;5284667;27;20001;-84
2024/04/25 03:51:10;;;;;;;0.10;0.10;;;9.00;69.80;;;;;;5315364;27;20405;-86
2024/04/25 03:53:39;;;;;;;0.10;0.10;;;9.00;69.90;;;;;;5312604;26;20005;-85
2024/04/25 03:56:07;;;;;;;0.10;0.10;;;9.00;69.90;;;;;;5317365;26;20005;-85
2024/04/25 03:58:33;;;;;;;0.10;0.10;;;9.00;69.60;;;;;;5347907;26;20454;-86
2024/04/25 04:01:01;;;;;;;0.15;0.15;;;9.00;70.10;;;;;;5318732;26;20010;-86
2024/04/25 04:03:29;;;;;;;0.10;0.10;;;9.00;70.10;;;;;;5313320;27;20001;-85
2024/04/25 04:05:55;;;;;;;0.10;0.10;;;8.90;70.10;;;;;;5320976;26;20001;-83
2024/04/25 04:08:23;;;;;;;0.10;0.10;;;8.90;70.20;;;;;;5345969;26;20016;-86
2024/04/25 04:10:54;;;;;;;0.10;0.10;;;8.90;70.20;;;;;;5344125;26;20001;-85
2024/04/25 04:13:20;;;;;;;0.10;0.10;;;8.90;70.50;;;;;;5347423;26;20020;-85
2024/04/25 04:15:48;;;;;;;0.10;0.10;;;8.80;70.50;;;;;;5339571;26;20033;-86
2024/04/25 04:18:14;;;;;;;0.10;0.10;;;8.80;70.60;;;;;;5313098;27;20006;-85
2024/04/25 04:20:44;;;;;;;0.10;0.10;;;8.80;70.30;;;;;;5316313;26;20012;-84
2024/04/25 04:23:12;;;;;;;0.10;0.10;;;8.80;70.40;;;;;;5317140;26;19997;-86
2024/04/25 04:25:50;;;;;;;0.10;0.10;;;8.80;70.30;;;;;;5349074;26;20377;-84
2024/04/25 04:28:16;;;;;;;0.10;0.10;;;8.80;70.30;;;;;;5288720;27;20390;-86
2024/04/25 04:30:44;;;;;;;0.10;0.10;;;8.70;70.30;;;;;;5332571;26;20233;-84
2024/04/25 04:33:09;;;;;;;0.10;0.10;;;8.70;70.40;;;;;;5347084;26;20004;-86
2024/04/25 04:35:35;;;;;;;0.10;0.10;;;8.60;70.40;;;;;;5325366;26;20699;-86
2024/04/25 04:38:01;;;;;;;0.10;0.10;;;8.50;70.50;;;;;;5375736;26;20000;-86
2024/04/25 04:40:26;;;;;;;0.10;0.10;;;8.50;70.60;;;;;;5347061;26;19997;-87
2024/04/25 04:42:54;;;;;;;0.10;0.10;;;8.40;70.50;;;;;;5347601;26;20016;-85
2024/04/25 04:45:20;;;;;;;0.10;0.10;;;8.30;70.80;;;;;;5325486;26;20002;-86
2024/04/25 04:47:49;;;;;;;0.10;0.10;;;8.20;71.10;;;;;;5313785;27;20032;-85
2024/04/25 04:50:19;;;;;;;0.10;0.10;;;8.10;71.40;;;;;;5335527;26;20083;-88
2024/04/25 04:52:54;;;;;;;0.10;0.10;;;8.00;71.50;;;;;;5312194;26;19997;-83
2024/04/25 04:55:45;;;;;;;;;;;;;;;;;;;;;
2024/04/25 05:01:54;;;;;;;0.10;0.10;;;8.00;71.80;;;;;;5316783;26;20108;-83
2024/04/25 05:11:29;;;;;;;0.10;0.10;;;8.00;71.60;;;;;;5338614;26;20063;-82
2024/04/25 05:14:37;;;;;;;0.10;0.10;;;7.90;71.80;;;;;;5300705;27;20005;-81
2024/04/25 05:17:05;;;;;;;0.10;0.10;;;7.80;72.00;;;;;;5298437;26;20102;-83
2024/04/25 05:19:31;;;;;;;0.10;0.10;;;7.90;72.00;;;;;;5311958;26;20016;-84
2024/04/25 05:21:57;;;;;;;0.10;0.10;;;7.90;71.70;;;;;;5332249;26;20002;-80
2024/04/25 05:24:22;;;;;;;0.10;0.10;;;7.90;71.70;;;;;;5312116;27;20429;-81
2024/04/25 05:27:36;;;;;;;;;;;;;;;;;;;;;
2024/04/25 05:30:22;;;;;;;0.10;0.10;;;7.90;71.50;;;;;;5324967;26;20024;-83
2024/04/25 05:33:09;;;;;;;;;;;;;;;;;;;;;
2024/04/25 05:36:05;;;;;;;0.10;0.10;;;7.80;71.70;;;;;;5333628;26;20016;-83
2024/04/25 05:42:17;;;;;;;0.15;0.15;;;7.80;72.00;;;;;;5351039;26;20417;-83
2024/04/25 05:45:03;;;;;;;0.10;0.10;;;7.90;71.80;;;;;;5350480;26;20001;-82
2024/04/25 05:47:31;;;;;;;0.10;0.10;;;8.00;71.70;;;;;;5339480;26;20018;-82
2024/04/25 05:50:00;;;;;;;0.10;0.10;;;8.10;71.50;;;;;;5315533;27;20005;-83
2024/04/25 05:52:27;;;;;;;0.10;0.10;;;8.10;71.60;;;;;;5315228;27;20001;-83
2024/04/25 05:54:52;;;;;;;0.10;0.10;;;8.20;71.40;;;;;;5316638;27;19997;-82
2024/04/25 05:57:20;;;;;;;0.10;0.10;;;8.20;71.20;;;;;;5313999;26;20380;-83
2024/04/25 05:59:46;;;;;;;0.10;0.10;;;8.20;71.50;;;;;;5319971;26;20005;-83
2024/04/25 06:02:12;;;;;;;0.10;0.10;;;8.20;71.60;;;;;;5313977;27;20014;-82
2024/04/25 06:04:37;;;;;;;0.10;0.10;;;8.30;71.90;;;;;;5314599;27;20479;-82
2024/04/25 06:07:03;;;;;;;0.20;0.20;;;8.50;71.60;;;;;;5301277;26;20009;-82
2024/04/25 06:09:32;;;;;;;0.10;0.10;;;8.60;71.70;;;;;;5323976;26;20487;-83
2024/04/25 06:11:58;;;;;;;0.20;0.20;;;8.70;71.60;;;;;;5339125;26;20017;-82
2024/04/25 06:14:23;;;;;;;0.20;0.20;;;8.80;71.10;;;;;;5315010;27;20071;-83
2024/04/25 06:16:49;;;;;;;0.10;0.10;;;8.90;71.30;;;;;;5284396;27;19997;-82
2024/04/25 06:19:15;;;;;;;0.10;0.10;;;9.00;71.30;;;;;;5313528;26;20005;-82
2024/04/25 06:21:43;;;;;;;0.15;0.15;;;9.10;70.90;;;;;;5314778;27;20005;-83
2024/04/25 06:24:09;;;;;;;0.10;0.10;;;9.20;70.60;;;;;;5323700;26;20001;-83
2024/04/25 06:26:35;;;;;;;0.10;0.10;;;9.30;70.50;;;;;;5351099;26;20055;-82
2024/04/25 06:29:01;;;;;;;0.10;0.10;;;9.50;70.20;;;;;;5319656;26;20004;-83
2024/04/25 06:31:26;;;;;;;0.10;0.10;;;9.50;70.30;;;;;;5304192;27;20016;-82
2024/04/25 06:33:59;;;;;;;0.10;0.10;;;9.60;70.30;;;;;;5286470;27;20445;-82
2024/04/25 06:36:28;;;;;;;0.10;0.10;;;9.60;70.10;;;;;;5310188;26;20005;-82
2024/04/25 06:38:54;;;;;;;0.10;0.10;;;9.70;70.00;;;;;;5350893;26;20016;-82
2024/04/25 06:41:25;;;;;;;0.10;0.10;;;9.80;70.20;;;;;;5319502;26;20001;-83
2024/04/25 06:43:58;;;;;;;0.20;0.20;;;9.90;69.60;;;;;;5286049;27;20014;-82
2024/04/25 06:46:24;;;;;;;;;;;10.00;70.00;;;;;;5287896;27;20010;-80
2024/04/25 06:48:52;;;;;;;0.10;0.10;;;10.20;70.00;;;;;;5342907;26;19996;-83
2024/04/25 06:51:33;;;;;;;;;;;;;;;;;;;;;
2024/04/25 06:54:19;;;;;;;0.10;0.10;;;10.30;67.80;;;;;;5342686;26;20355;-84
2024/04/25 06:56:47;;;;;;;0.20;0.20;;;10.40;67.40;;;;;;5344359;26;20010;-81
2024/04/25 07:00:03;;;;;;;0.10;0.10;;;10.50;66.70;;;;;;5318865;26;20410;-82
2024/04/25 07:02:34;;;;;;;0.10;0.10;;;10.70;66.50;;;;;;5323963;26;20007;-81
2024/04/25 07:16:33;;;;;;;;;;;;;;;;;;;;;
2024/04/25 07:22:53;;;;;;;0.10;0.10;;;11.60;63.50;;;;;;5308314;27;20025;-81
2024/04/25 07:37:25;;;;;;;0.20;0.20;;;12.70;60.30;;;;;;5655944;21;20000;-80
2024/04/25 07:39:54;;;;;;;0.30;0.30;;;12.90;59.90;;;;;;5357204;26;20023;-80
2024/04/25 07:46:29;;;;;;;0.50;0.50;;;15.00;56.50;;;;;;5364813;26;20345;-83
2024/04/25 07:49:58;;;;;;;0.50;0.50;;;18.00;50.80;;;;;;5244974;27;20563;-82
2024/04/25 07:52:30;;;;;;;0.50;0.50;;;21.10;43.50;;;;;;5150587;27;20000;-88
2024/04/25 07:55:34;;;;;;;0.50;0.50;;;23.00;38.60;;;;;;5167496;27;20486;-87
2024/04/25 07:58:38;;;;;;;0.60;0.60;;;24.50;35.90;;;;;;5175731;27;20000;-87
2024/04/25 09:08:21;;;;;;;0.90;0.90;;;29.60;26.60;;;;;;499845;21;20334;-84
2024/04/25 09:11:28;;;;;;;0.50;0.50;;;29.80;24.80;;;;;;5237580;27;20476;-84
2024/04/25 09:13:59;;;;;;;0.50;0.50;;;29.00;26.00;;;;;;5213910;27;20004;-85
2024/04/25 09:16:36;;;;;;;;;;;29.20;25.50;;;;;;5242722;27;19999;-84
2024/04/25 09:19:07;;;;;;;0.40;0.40;;;29.10;26.00;;;;;;5240861;27;19928;-85
2024/04/25 09:21:36;;;;;;;0.70;0.70;;;28.40;25.70;;;;;;5198885;27;20028;-85
2024/04/25 09:24:15;;;;;;;;;;;;;;;;;;;;;
2024/04/25 09:27:09;;;;;;;0.20;0.20;;;28.50;25.80;;;;;;5248357;27;20019;-85
2024/04/25 09:29:35;;;;;;;0.90;0.90;;;28.10;25.50;;;;;;5216957;27;20145;-84
2024/04/25 09:32:12;;;;;;;0.90;0.90;;;28.40;26.30;;;;;;5217909;27;20472;-84
2024/04/25 09:34:43;;;;;;;0.80;0.80;;;29.10;26.20;;;;;;5213111;27;20000;-85
2024/04/25 09:37:09;;;;;;;0.30;0.30;;;29.00;26.40;;;;;;5248388;27;20082;-85
2024/04/25 09:39:35;;;;;;;0.70;0.70;;;29.10;25.60;;;;;;5215759;27;20011;-84
2024/04/25 09:42:16;;;;;;;;;;;;;;;;;;;;;
2024/04/25 09:44:54;;;;;;;0.80;0.80;;;27.40;27.50;;;;;;5231523;27;19996;-83
2024/04/25 09:47:53;;;;;;;0.90;0.90;;;28.20;27.40;;;;;;5216338;27;20085;-83
2024/04/25 09:50:27;;;;;;;0.90;0.90;;;29.20;27.40;;;;;;5183905;27;20018;-83
2024/04/25 09:53:00;;;;;;;0.90;0.90;;;29.70;26.80;;;;;;5217457;27;20074;-83
2024/04/25 09:55:38;;;;;;;0.50;0.50;;;29.60;25.50;;;;;;5242112;27;20430;-82
2024/04/25 09:58:11;;;;;;;0.50;0.50;;;29.30;26.30;;;;;;5217522;27;20007;-82
2024/04/25 10:00:40;;;;;;;0.05;0.05;;;27.90;27.40;;;;;;5242033;27;20011;-83
2024/04/25 10:03:08;;;;;;;0.00;0.00;;;26.70;28.60;;;;;;5217723;27;19999;-83
2024/04/25 10:05:39;;;;;;;0.00;0.00;;;25.30;29.90;;;;;;5217987;27;20014;-82
2024/04/25 10:08:13;;;;;;;0.00;0.00;;;24.20;32.20;;;;;;5245942;27;20002;-82
2024/04/25 10:10:41;;;;;;;0.00;0.00;;;23.30;33.10;;;;;;5214274;27;19999;-82
2024/04/25 10:13:15;;;;;;;0.00;0.00;;;22.40;33.90;;;;;;5209635;27;21181;-82
2024/04/25 10:19:12;;;;;;;0.00;0.00;;;21.30;36.10;;;;;;5206236;27;20007;-81
2024/04/25 10:21:54;;;;;;;0.00;0.00;;;20.90;37.30;;;;;;5241141;27;20318;-86
2024/04/25 10:24:23;;;;;;;0.00;0.00;;;20.70;37.70;;;;;;5232549;27;20022;-85
2024/04/25 10:27:10;;;;;;;0.03;0.03;;;20.30;38.00;;;;;;5185030;27;20004;-84
2024/04/25 10:29:42;;;;;;;0.00;0.00;;;19.90;38.70;;;;;;5216578;27;20022;-84
2024/04/25 10:32:13;;;;;;;0.00;0.00;;;19.60;39.00;;;;;;5212734;27;20026;-84
2024/04/25 10:34:47;;;;;;;0.10;0.10;;;19.40;40.00;;;;;;5213155;27;20022;-85
2024/04/25 10:37:42;;;;;;;;;;;;;;;;;;;;;
2024/04/25 10:44:03;;;;;;;0.10;0.10;;;19.60;40.10;;;;;;5186940;27;20347;-85
2024/04/25 10:46:29;;;;;;;0.10;0.10;;;19.60;39.60;;;;;;5218294;27;19999;-81
2024/04/25 10:48:55;;;;;;;0.10;0.10;;;19.80;37.90;;;;;;5215015;27;20004;-81
2024/04/25 10:51:21;;;;;;;0.10;0.10;;;20.20;37.20;;;;;;5213414;27;20010;-78
2024/04/25 10:53:48;;;;;;;0.10;0.10;;;20.50;35.70;;;;;;5214986;27;20008;-78
2024/04/25 10:56:24;;;;;;;0.10;0.10;;;20.60;34.80;;;;;;5215146;27;20004;-81
2024/04/25 10:58:54;;;;;;;0.08;0.08;;;20.60;34.10;;;;;;5214538;27;20004;-92
2024/04/25 11:01:46;;;;;;;0.00;0.00;;;20.40;35.30;;;;;;5213572;27;20004;-84
2024/04/25 11:04:12;;;;;;;0.10;0.10;;;20.10;35.40;;;;;;5214819;27;20004;-83
2024/04/25 11:06:37;;;;;;;0.10;0.10;;;19.80;34.60;;;;;;5229426;27;20014;-84
2024/04/25 11:09:09;;;;;;;0.10;0.10;;;19.80;36.50;;;;;;5190500;27;19999;-84
2024/04/25 11:11:36;;;;;;;0.00;0.00;;;19.40;37.50;;;;;;5228524;27;20320;-82
2024/04/25 11:14:01;;;;;;;0.00;0.00;;;19.30;36.90;;;;;;5214918;27;20216;-79
2024/04/25 11:16:37;;;;;;;0.00;0.00;;;19.10;36.80;;;;;;5215051;27;20012;-80
2024/04/25 11:19:02;;;;;;;0.10;0.10;;;18.90;36.80;;;;;;5214674;27;20056;-80
2024/04/25 11:21:28;;;;;;;0.10;0.10;;;18.90;37.30;;;;;;5214536;27;20038;-79
2024/04/25 11:23:56;;;;;;;0.10;0.10;;;19.10;37.80;;;;;;5215127;27;20335;-80
2024/04/25 11:26:22;;;;;;;0.10;0.10;;;19.20;38.10;;;;;;5212985;27;20074;-79
2024/04/25 11:28:47;;;;;;;0.10;0.10;;;19.40;37.30;;;;;;5212483;27;20032;-85
2024/04/25 11:31:13;;;;;;;0.10;0.10;;;19.50;37.90;;;;;;5238870;27;20006;-84
2024/04/25 11:33:40;;;;;;;0.10;0.10;;;19.70;37.10;;;;;;5246925;27;20018;-85
2024/04/25 11:36:05;;;;;;;0.10;0.10;;;20.10;37.10;;;;;;5216205;27;20406;-84
2024/04/25 11:38:31;;;;;;;0.10;0.10;;;20.40;34.90;;;;;;5247974;27;20027;-81
2024/04/25 11:40:57;;;;;;;0.10;0.10;;;20.50;35.30;;;;;;5218350;27;20340;-81
2024/04/25 11:43:26;;;;;;;0.10;0.10;;;20.40;34.70;;;;;;5217921;27;20019;-83
2024/04/25 11:45:52;;;;;;;0.05;0.05;;;20.30;33.80;;;;;;5213865;27;20074;-83
2024/04/25 11:48:20;;;;;;;0.10;0.10;;;20.00;34.10;;;;;;5212678;27;20000;-83
2024/04/25 11:50:46;;;;;;;0.10;0.10;;;19.80;34.70;;;;;;5214533;27;20571;-83
2024/04/25 11:53:12;;;;;;;0.10;0.10;;;19.70;35.40;;;;;;5214102;27;20867;-81
2024/04/25 11:55:38;;;;;;;0.10;0.10;;;19.60;35.50;;;;;;5214131;27;20008;-82
2024/04/25 11:58:07;;;;;;;0.10;0.10;;;19.50;34.00;;;;;;5214494;27;20044;-82
2024/04/25 12:00:36;;;;;;;0.10;0.10;;;19.50;35.70;;;;;;5222072;27;20015;-82
2024/04/25 12:03:02;;;;;;;0.10;0.10;;;19.40;36.10;;;;;;5185256;27;20439;-82
2024/04/25 12:05:27;;;;;;;0.10;0.10;;;19.50;36.60;;;;;;5213556;27;20343;-82
2024/04/25 12:07:56;;;;;;;0.10;0.10;;;19.60;36.90;;;;;;5247302;27;19999;-82
2024/04/25 12:10:23;;;;;;;0.10;0.10;;;19.80;36.30;;;;;;5210987;27;20003;-82
2024/04/25 12:12:48;;;;;;;0.10;0.10;;;19.80;35.10;;;;;;5214287;27;20078;-81
2024/04/25 12:15:14;;;;;;;0.10;0.10;;;19.60;35.20;;;;;;5213816;27;20007;-82
2024/04/25 12:17:39;;;;;;;0.10;0.10;;;19.80;34.90;;;;;;5213746;27;20020;-82
2024/04/25 12:20:07;;;;;;;0.10;0.10;;;19.80;35.00;;;;;;5214146;27;20075;-82
2024/04/25 12:22:33;;;;;;;0.10;0.10;;;19.80;35.80;;;;;;5213911;27;20078;-82
2024/04/25 12:24:58;;;;;;;0.10;0.10;;;19.60;35.80;;;;;;5213644;27;20008;-83
2024/04/25 12:27:24;;;;;;;0.10;0.10;;;19.70;36.40;;;;;;5213790;27;20000;-82
2024/04/25 12:29:49;;;;;;;0.00;0.00;;;19.70;35.40;;;;;;5217432;27;20032;-82
2024/04/25 12:32:15;;;;;;;0.10;0.10;;;19.60;36.10;;;;;;5237745;27;20015;-83
2024/04/25 12:34:41;;;;;;;0.10;0.10;;;19.60;35.20;;;;;;5241387;27;20007;-82
2024/04/25 12:37:07;;;;;;;0.10;0.10;;;19.70;36.70;;;;;;5220119;27;20027;-82
2024/04/25 12:39:36;;;;;;;0.10;0.10;;;19.70;36.70;;;;;;5245145;27;19999;-81
2024/04/25 12:42:05;;;;;;;0.10;0.10;;;19.70;36.30;;;;;;5244680;27;20018;-86
2024/04/25 12:44:30;;;;;;;0.10;0.10;;;19.70;35.20;;;;;;5243275;27;20082;-83
2024/04/25 12:46:56;;;;;;;0.10;0.10;;;19.70;35.30;;;;;;5230400;27;20014;-83
2024/04/25 12:49:33;;;;;;;0.10;0.10;;;19.60;36.00;;;;;;5257838;27;20078;-82
2024/04/25 12:52:04;;;;;;;0.10;0.10;;;19.30;36.90;;;;;;5241551;27;20113;-83
2024/04/25 12:54:29;;;;;;;0.10;0.10;;;19.30;36.90;;;;;;5246165;27;20082;-80
2024/04/25 12:56:55;;;;;;;0.10;0.10;;;19.30;34.70;;;;;;5226774;27;20007;-81
2024/04/25 12:59:21;;;;;;;0.10;0.10;;;19.30;36.30;;;;;;5257609;27;19999;-81
2024/04/25 13:01:46;;;;;;;0.10;0.10;;;19.30;35.80;;;;;;5244645;27;20047;-82
2024/04/25 13:04:12;;;;;;;0.10;0.10;;;19.30;37.00;;;;;;5233835;27;20077;-90
2024/04/25 13:06:44;;;;;;;0.00;0.00;;;19.20;37.30;;;;;;5225267;27;20031;-90
2024/04/25 13:09:10;;;;;;;0.10;0.10;;;19.00;36.50;;;;;;5239759;27;20015;-84
2024/04/25 13:11:36;;;;;;;0.10;0.10;;;18.80;37.80;;;;;;5212898;27;20007;-85
2024/04/25 13:14:01;;;;;;;0.00;0.00;;;18.50;38.60;;;;;;5198367;27;20006;-85
2024/04/25 13:16:31;;;;;;;0.00;0.00;;;18.30;38.80;;;;;;5200422;27;20014;-86
2024/04/25 13:19:00;;;;;;;0.10;0.10;;;18.30;38.90;;;;;;5233707;27;20060;-86
2024/04/25 13:21:25;;;;;;;0.10;0.10;;;18.40;37.80;;;;;;5183476;27;20020;-87
2024/04/25 13:24:00;;;;;;;0.10;0.10;;;18.50;39.20;;;;;;5203874;27;20003;-85
2024/04/25 13:26:33;;;;;;;0.10;0.10;;;18.80;39.70;;;;;;5243848;27;20011;-85
2024/04/25 13:28:59;;;;;;;;;;;19.00;38.40;;;;;;5227623;27;20003;-85
2024/04/25 13:31:26;;;;;;;0.10;0.10;;;19.10;37.20;;;;;;5238155;27;19980;-86
2024/04/25 13:33:55;;;;;;;0.00;0.00;;;19.10;38.40;;;;;;5216030;27;19999;-85
2024/04/25 13:36:21;;;;;;;0.10;0.10;;;19.20;38.30;;;;;;5245434;27;20003;-86
2024/04/25 13:38:47;;;;;;;0.10;0.10;;;19.30;36.90;;;;;;5243048;27;20078;-87
2024/04/25 13:41:13;;;;;;;0.10;0.10;;;19.30;36.70;;;;;;5212122;27;20010;-85
2024/04/25 13:43:39;;;;;;;0.10;0.10;;;19.20;36.90;;;;;;5215108;27;20015;-86
2024/04/25 13:46:04;;;;;;;0.10;0.10;;;19.10;37.30;;;;;;5231032;27;20052;-86
2024/04/25 13:48:30;;;;;;;0.10;0.10;;;19.10;36.90;;;;;;5215714;27;20006;-85
2024/04/25 13:50:57;;;;;;;0.10;0.10;;;19.30;36.90;;;;;;5209693;27;20078;-85
2024/04/25 13:53:23;;;;;;;0.10;0.10;;;19.30;37.40;;;;;;5218405;27;20007;-90
2024/04/25 13:56:05;;;;;;;0.10;0.10;;;19.40;35.70;;;;;;5231339;27;20035;-88
2024/04/25 13:58:50;;;;;;;0.10;0.10;;;19.40;35.90;;;;;;5244937;27;20007;-89
2024/04/25 14:01:44;;;;;;;0.10;0.10;;;19.50;36.50;;;;;;5221235;27;20088;-83
2024/04/25 14:04:51;;;;;;;;;;;;;;;;;;;;;
2024/04/25 14:07:33;;;;;;;0.10;0.10;;;19.50;35.60;;;;;;5221365;27;20323;-86
2024/04/25 14:21:09;;;;;;;0.10;0.10;;;19.50;36.90;;;;;;5152798;27;20001;-84
2024/04/25 16:09:57;;;;;;;0.03;0.03;;;18.50;38.90;;;;;;5304596;27;20013;-85
2024/04/25 16:12:30;;;;;;;0.10;0.10;;;18.50;38.60;;;;;;5277480;27;20026;-82
2024/04/25 16:14:59;;;;;;;0.10;0.10;;;18.60;38.60;;;;;;5303813;27;19998;-90
2024/04/25 16:27:29;;;;;;;0.00;0.00;;;18.70;37.90;;;;;;5243461;27;20003;-89
2024/04/25 16:31:01;;;;;;;0.10;0.10;;;18.60;38.90;;;;;;5174324;27;20321;-90
2024/04/25 17:04:54;;;;;;;0.00;0.00;;;18.00;41.60;;;;;;4883342;29;20021;-77
2024/04/25 17:07:20;;;;;;;0.00;0.00;;;17.80;41.40;;;;;;4915530;29;20359;-78
2024/04/25 17:09:46;;;;;;;0.08;0.08;;;17.70;41.70;;;;;;5097785;27;20005;-77
2024/04/25 17:12:11;;;;;;;0.00;0.00;;;17.60;42.00;;;;;;5291062;27;20006;-78
2024/04/25 17:14:37;;;;;;;0.00;0.00;;;17.60;43.00;;;;;;5283034;27;20020;-79
2024/04/25 17:17:03;;;;;;;0.00;0.00;;;17.50;43.20;;;;;;5308977;27;20009;-78
2024/04/25 17:19:30;;;;;;;0.05;0.05;;;17.30;43.30;;;;;;5311938;27;20049;-78
2024/04/25 17:21:56;;;;;;;0.00;0.00;;;17.20;43.60;;;;;;5282718;27;19998;-78
2024/04/25 17:24:22;;;;;;;0.00;0.00;;;17.20;42.90;;;;;;5282836;27;20033;-79
2024/04/25 17:26:48;;;;;;;0.00;0.00;;;17.00;43.80;;;;;;5281348;27;20352;-79
2024/04/25 17:29:14;;;;;;;0.00;0.00;;;17.10;43.80;;;;;;5282940;27;20025;-78
2024/04/25 17:31:40;;;;;;;0.00;0.00;;;17.10;43.80;;;;;;5313321;27;20531;-79
2024/04/25 17:34:07;;;;;;;0.10;0.10;;;17.20;43.90;;;;;;5301086;27;20393;-79
2024/04/25 17:36:32;;;;;;;0.10;0.10;;;17.20;44.10;;;;;;5300353;27;20030;-77
2024/04/25 17:38:58;;;;;;;0.10;0.10;;;17.20;43.40;;;;;;5314380;27;20534;-77
2024/04/25 17:41:24;;;;;;;0.00;0.00;;;17.10;43.20;;;;;;5281010;27;20482;-77
2024/04/25 17:43:49;;;;;;;0.08;0.08;;;17.00;43.60;;;;;;5280432;27;19998;-76
2024/04/25 17:46:15;;;;;;;0.00;0.00;;;17.00;44.10;;;;;;5297365;27;20103;-79
2024/04/25 17:48:40;;;;;;;0.10;0.10;;;16.90;44.70;;;;;;5284738;27;20001;-77
2024/04/25 17:51:06;;;;;;;0.08;0.08;;;16.90;43.80;;;;;;5308148;27;20001;-79
2024/04/25 17:53:32;;;;;;;0.00;0.00;;;16.80;44.70;;;;;;5311398;27;20405;-77
2024/04/25 17:55:57;;;;;;;0.00;0.00;;;16.70;45.00;;;;;;5284832;27;19998;-79
2024/04/25 17:58:23;;;;;;;0.10;0.10;;;16.60;44.60;;;;;;5308634;27;20001;-79
2024/04/25 18:00:49;;;;;;;0.10;0.10;;;16.60;45.40;;;;;;5277794;27;19998;-83
2024/04/25 18:03:15;;;;;;;0.03;0.03;;;16.60;45.60;;;;;;5307715;27;20010;-83
2024/04/25 18:05:41;;;;;;;0.00;0.00;;;16.60;45.70;;;;;;5310639;27;20001;-78
2024/04/25 18:08:09;;;;;;;0.00;0.00;;;16.50;45.70;;;;;;5286447;27;20013;-79
2024/04/25 18:10:36;;;;;;;0.10;0.10;;;16.40;46.40;;;;;;5295283;27;19994;-83
2024/04/25 18:13:04;;;;;;;0.00;0.00;;;16.40;46.50;;;;;;5285423;27;19997;-85
2024/04/25 18:15:31;;;;;;;0.00;0.00;;;16.30;46.90;;;;;;5315228;27;20049;-80
2024/04/25 18:17:57;;;;;;;0.00;0.00;;;16.30;47.10;;;;;;5308705;27;19999;-80